sensor_id;sensor_type;location;lat;lon;timestamp;pressure;altitude;pressure_sealevel;temperature;humidity
75759;BME280;64371;47.566;19.086;2023-06-10T00:00:31;100034.16;;;16.30;100.00
75759;BME280;64371;47.566;19.086;2023-06-10T00:03:34;100039.75;;;16.17;100.00
75759;BME280;64371;47.566;19.086;2023-06-10T00:06:38;100035.84;;;16.14;100.00
75759;BME280;64371;47.566;19.086;2023-06-10T00:09:41;100030.69;;;16.18;100.00
75759;BME280;64371;47.566;19.086;2023-06-10T00:12:44;100027.41;;;16.12;100.00
75759;BME280;64371;47.566;19.086;2023-06-10T00:15:46;100024.94;;;16.07;100.00
75759;BME280;64371;47.566;19.086;2023-06-10T00:18:48;100024.72;;;15.91;100.00
75759;BME280;64371;47.566;19.086;2023-06-10T00:21:53;100028.16;;;15.92;100.00
75759;BME280;64371;47.566;19.086;2023-06-10T00:24:55;100017.84;;;15.90;100.00
75759;BME280;64371;47.566;19.086;2023-06-10T00:27:58;100030.19;;;15.95;100.00
75759;BME280;64371;47.566;19.086;2023-06-10T00:31:03;100031.75;;;15.96;100.00
75759;BME280;64371;47.566;19.086;2023-06-10T00:34:07;100032.38;;;15.93;100.00
75759;BME280;64371;47.566;19.086;2023-06-10T00:37:10;100028.50;;;15.90;100.00
75759;BME280;64371;47.566;19.086;2023-06-10T00:40:12;100020.25;;;15.83;100.00
75759;BME280;64371;47.566;19.086;2023-06-10T00:43:16;100027.09;;;15.84;100.00
75759;BME280;64371;47.566;19.086;2023-06-10T00:46:19;100030.88;;;15.83;100.00
75759;BME280;64371;47.566;19.086;2023-06-10T00:49:22;100033.66;;;15.87;100.00
75759;BME280;64371;47.566;19.086;2023-06-10T00:52:28;100011.06;;;15.72;100.00
75759;BME280;64371;47.566;19.086;2023-06-10T00:55:32;100031.97;;;15.82;100.00
75759;BME280;64371;47.566;19.086;2023-06-10T00:58:35;100037.47;;;15.77;100.00
75759;BME280;64371;47.566;19.086;2023-06-10T01:01:39;100041.22;;;15.76;100.00
75759;BME280;64371;47.566;19.086;2023-06-10T01:04:42;100030.78;;;15.71;100.00
75759;BME280;64371;47.566;19.086;2023-06-10T01:07:58;100040.47;;;15.67;100.00
75759;BME280;64371;47.566;19.086;2023-06-10T01:11:04;100029.56;;;15.60;100.00
75759;BME280;64371;47.566;19.086;2023-06-10T01:14:09;100038.16;;;15.66;100.00
75759;BME280;64371;47.566;19.086;2023-06-10T01:17:13;100036.28;;;15.58;100.00
75759;BME280;64371;47.566;19.086;2023-06-10T01:20:19;100040.41;;;15.47;100.00
75759;BME280;64371;47.566;19.086;2023-06-10T01:23:21;100032.59;;;15.42;100.00
75759;BME280;64371;47.566;19.086;2023-06-10T01:26:29;100025.41;;;15.34;100.00
75759;BME280;64371;47.566;19.086;2023-06-10T01:29:43;100034.47;;;15.41;100.00
75759;BME280;64371;47.566;19.086;2023-06-10T01:32:51;100031.16;;;15.44;100.00
75759;BME280;64371;47.566;19.086;2023-06-10T01:35:59;100030.06;;;15.54;100.00
75759;BME280;64371;47.566;19.086;2023-06-10T01:39:04;100030.97;;;15.66;100.00
75759;BME280;64371;47.566;19.086;2023-06-10T01:42:10;100030.59;;;15.76;100.00
75759;BME280;64371;47.566;19.086;2023-06-10T01:45:13;100027.66;;;15.69;100.00
75759;BME280;64371;47.566;19.086;2023-06-10T01:48:16;100028.91;;;15.72;100.00
75759;BME280;64371;47.566;19.086;2023-06-10T01:51:18;100030.81;;;15.63;100.00
75759;BME280;64371;47.566;19.086;2023-06-10T01:54:21;100031.91;;;15.62;100.00
75759;BME280;64371;47.566;19.086;2023-06-10T01:57:23;100032.84;;;15.66;100.00
75759;BME280;64371;47.566;19.086;2023-06-10T02:00:25;100037.88;;;15.59;100.00
75759;BME280;64371;47.566;19.086;2023-06-10T02:03:28;100036.00;;;15.51;100.00
75759;BME280;64371;47.566;19.086;2023-06-10T02:06:30;100045.09;;;15.50;100.00
75759;BME280;64371;47.566;19.086;2023-06-10T02:09:33;100037.13;;;15.50;100.00
75759;BME280;64371;47.566;19.086;2023-06-10T02:12:38;100033.34;;;15.51;100.00
75759;BME280;64371;47.566;19.086;2023-06-10T02:15:40;100043.81;;;15.56;100.00
75759;BME280;64371;47.566;19.086;2023-06-10T02:18:43;100038.03;;;15.54;100.00
75759;BME280;64371;47.566;19.086;2023-06-10T02:21:46;100043.03;;;15.55;100.00
75759;BME280;64371;47.566;19.086;2023-06-10T02:24:49;100038.50;;;15.56;100.00
75759;BME280;64371;47.566;19.086;2023-06-10T02:27:51;100038.31;;;15.61;100.00
75759;BME280;64371;47.566;19.086;2023-06-10T02:30:54;100041.44;;;15.63;100.00
75759;BME280;64371;47.566;19.086;2023-06-10T02:33:56;100036.56;;;15.73;100.00
75759;BME280;64371;47.566;19.086;2023-06-10T02:37:00;100034.78;;;15.86;100.00
75759;BME280;64371;47.566;19.086;2023-06-10T02:40:04;100032.75;;;15.83;100.00
75759;BME280;64371;47.566;19.086;2023-06-10T02:43:09;100032.88;;;15.86;100.00
75759;BME280;64371;47.566;19.086;2023-06-10T02:46:11;100044.00;;;15.88;100.00
75759;BME280;64371;47.566;19.086;2023-06-10T02:49:15;100032.22;;;15.89;100.00
75759;BME280;64371;47.566;19.086;2023-06-10T02:52:20;100044.00;;;15.88;100.00
75759;BME280;64371;47.566;19.086;2023-06-10T02:55:23;100046.94;;;15.87;100.00
75759;BME280;64371;47.566;19.086;2023-06-10T02:58:32;100054.56;;;15.97;100.00
75759;BME280;64371;47.566;19.086;2023-06-10T03:01:35;100055.81;;;16.00;100.00
75759;BME280;64371;47.566;19.086;2023-06-10T03:04:43;100052.50;;;16.03;100.00
75759;BME280;64371;47.566;19.086;2023-06-10T03:07:51;100060.31;;;16.08;100.00
75759;BME280;64371;47.566;19.086;2023-06-10T03:10:54;100050.25;;;16.13;100.00
75759;BME280;64371;47.566;19.086;2023-06-10T03:13:57;100062.72;;;16.21;100.00
75759;BME280;64371;47.566;19.086;2023-06-10T03:17:02;100059.75;;;16.23;100.00
75759;BME280;64371;47.566;19.086;2023-06-10T03:20:07;100054.22;;;16.28;100.00
75759;BME280;64371;47.566;19.086;2023-06-10T03:23:14;100065.91;;;16.35;100.00
75759;BME280;64371;47.566;19.086;2023-06-10T03:26:18;100055.78;;;16.29;100.00
75759;BME280;64371;47.566;19.086;2023-06-10T03:29:24;100066.41;;;16.49;100.00
75759;BME280;64371;47.566;19.086;2023-06-10T03:32:27;100057.97;;;16.56;100.00
75759;BME280;64371;47.566;19.086;2023-06-10T03:35:31;100072.97;;;16.61;100.00
75759;BME280;64371;47.566;19.086;2023-06-10T03:38:35;100066.94;;;16.51;100.00
75759;BME280;64371;47.566;19.086;2023-06-10T03:41:40;100067.28;;;16.41;100.00
75759;BME280;64371;47.566;19.086;2023-06-10T03:44:43;100064.47;;;16.38;100.00
75759;BME280;64371;47.566;19.086;2023-06-10T03:47:46;100064.41;;;16.26;100.00
75759;BME280;64371;47.566;19.086;2023-06-10T03:50:53;100056.88;;;16.28;100.00
75759;BME280;64371;47.566;19.086;2023-06-10T03:53:56;100062.41;;;16.23;100.00
75759;BME280;64371;47.566;19.086;2023-06-10T03:56:59;100064.84;;;16.28;100.00
75759;BME280;64371;47.566;19.086;2023-06-10T04:00:02;100057.53;;;16.25;100.00
75759;BME280;64371;47.566;19.086;2023-06-10T04:03:15;100062.41;;;16.23;100.00
75759;BME280;64371;47.566;19.086;2023-06-10T04:06:24;100058.28;;;16.25;100.00
75759;BME280;64371;47.566;19.086;2023-06-10T04:09:29;100051.44;;;16.24;100.00
75759;BME280;64371;47.566;19.086;2023-06-10T04:12:31;100053.47;;;16.27;100.00
75759;BME280;64371;47.566;19.086;2023-06-10T04:15:34;100055.63;;;16.25;100.00
75759;BME280;64371;47.566;19.086;2023-06-10T04:18:41;100048.31;;;16.22;100.00
75759;BME280;64371;47.566;19.086;2023-06-10T04:21:45;100059.44;;;16.16;100.00
75759;BME280;64371;47.566;19.086;2023-06-10T04:24:47;100056.34;;;16.14;100.00
75759;BME280;64371;47.566;19.086;2023-06-10T04:27:50;100057.56;;;16.16;100.00
75759;BME280;64371;47.566;19.086;2023-06-10T04:30:53;100069.16;;;16.20;100.00
75759;BME280;64371;47.566;19.086;2023-06-10T04:33:55;100072.72;;;16.24;100.00
75759;BME280;64371;47.566;19.086;2023-06-10T04:36:58;100069.53;;;16.31;100.00
75759;BME280;64371;47.566;19.086;2023-06-10T04:40:01;100060.94;;;16.25;100.00
75759;BME280;64371;47.566;19.086;2023-06-10T04:43:04;100068.84;;;16.13;100.00
75759;BME280;64371;47.566;19.086;2023-06-10T04:46:08;100064.97;;;16.11;100.00
75759;BME280;64371;47.566;19.086;2023-06-10T04:49:11;100066.66;;;16.15;100.00
75759;BME280;64371;47.566;19.086;2023-06-10T04:52:16;100070.84;;;16.25;100.00
75759;BME280;64371;47.566;19.086;2023-06-10T04:55:20;100058.19;;;16.22;100.00
75759;BME280;64371;47.566;19.086;2023-06-10T04:58:23;100048.88;;;16.28;100.00
75759;BME280;64371;47.566;19.086;2023-06-10T05:01:26;100053.97;;;16.41;100.00
75759;BME280;64371;47.566;19.086;2023-06-10T05:04:29;100044.31;;;16.37;99.84
75759;BME280;64371;47.566;19.086;2023-06-10T05:07:32;100039.66;;;16.54;98.62
75759;BME280;64371;47.566;19.086;2023-06-10T05:10:34;100050.16;;;16.72;97.42
75759;BME280;64371;47.566;19.086;2023-06-10T05:13:38;100048.03;;;16.86;96.39
75759;BME280;64371;47.566;19.086;2023-06-10T05:16:42;100063.81;;;17.03;96.00
75759;BME280;64371;47.566;19.086;2023-06-10T05:19:45;100060.38;;;18.32;88.40
75759;BME280;64371;47.566;19.086;2023-06-10T05:22:49;100056.97;;;17.83;90.42
75759;BME280;64371;47.566;19.086;2023-06-10T05:25:51;100064.66;;;17.84;91.32
75759;BME280;64371;47.566;19.086;2023-06-10T05:28:53;100066.19;;;17.73;91.23
75759;BME280;64371;47.566;19.086;2023-06-10T05:31:56;100065.09;;;17.62;92.00
75759;BME280;64371;47.566;19.086;2023-06-10T05:34:59;100071.88;;;17.60;91.67
75759;BME280;64371;47.566;19.086;2023-06-10T05:38:03;100070.94;;;17.44;93.29
75759;BME280;64371;47.566;19.086;2023-06-10T05:41:05;100074.00;;;17.34;93.78
75759;BME280;64371;47.566;19.086;2023-06-10T05:44:08;100071.72;;;17.56;93.54
75759;BME280;64371;47.566;19.086;2023-06-10T05:47:12;100075.97;;;17.81;91.98
75759;BME280;64371;47.566;19.086;2023-06-10T05:50:15;100083.88;;;17.90;91.03
75759;BME280;64371;47.566;19.086;2023-06-10T05:53:17;100084.66;;;18.03;90.83
75759;BME280;64371;47.566;19.086;2023-06-10T05:56:20;100082.88;;;18.07;90.35
75759;BME280;64371;47.566;19.086;2023-06-10T05:59:24;100080.09;;;18.03;90.23
75759;BME280;64371;47.566;19.086;2023-06-10T06:02:26;100084.66;;;17.90;90.17
75759;BME280;64371;47.566;19.086;2023-06-10T06:05:30;100075.63;;;18.07;89.79
75759;BME280;64371;47.566;19.086;2023-06-10T06:08:37;100079.97;;;18.00;90.51
75759;BME280;64371;47.566;19.086;2023-06-10T06:11:40;100085.75;;;18.14;89.13
75759;BME280;64371;47.566;19.086;2023-06-10T06:14:43;100094.06;;;18.24;89.20
75759;BME280;64371;47.566;19.086;2023-06-10T06:17:46;100084.09;;;18.09;89.62
75759;BME280;64371;47.566;19.086;2023-06-10T06:20:49;100083.75;;;17.99;90.26
75759;BME280;64371;47.566;19.086;2023-06-10T06:23:52;100084.53;;;18.11;89.87
75759;BME280;64371;47.566;19.086;2023-06-10T06:26:54;100084.97;;;18.13;88.72
75759;BME280;64371;47.566;19.086;2023-06-10T06:29:57;100093.44;;;18.15;89.76
75759;BME280;64371;47.566;19.086;2023-06-10T06:33:00;100099.19;;;18.53;87.17
75759;BME280;64371;47.566;19.086;2023-06-10T06:36:02;100092.53;;;18.23;88.51
75759;BME280;64371;47.566;19.086;2023-06-10T06:39:05;100097.66;;;18.16;89.06
75759;BME280;64371;47.566;19.086;2023-06-10T06:42:08;100100.63;;;18.39;88.28
75759;BME280;64371;47.566;19.086;2023-06-10T06:45:30;100099.84;;;18.50;87.51
75759;BME280;64371;47.566;19.086;2023-06-10T06:48:33;100105.63;;;18.65;87.08
75759;BME280;64371;47.566;19.086;2023-06-10T06:51:35;100106.88;;;18.83;86.50
75759;BME280;64371;47.566;19.086;2023-06-10T06:54:38;100113.59;;;19.32;84.26
75759;BME280;64371;47.566;19.086;2023-06-10T06:57:40;100109.91;;;19.52;82.48
75759;BME280;64371;47.566;19.086;2023-06-10T07:00:42;100107.69;;;19.85;81.06
75759;BME280;64371;47.566;19.086;2023-06-10T07:03:45;100107.31;;;20.34;79.64
75759;BME280;64371;47.566;19.086;2023-06-10T07:06:48;100108.56;;;20.56;77.98
75759;BME280;64371;47.566;19.086;2023-06-10T07:09:50;100102.69;;;20.88;76.52
75759;BME280;64371;47.566;19.086;2023-06-10T07:12:53;100103.63;;;20.96;75.64
75759;BME280;64371;47.566;19.086;2023-06-10T07:15:55;100108.28;;;20.99;75.84
75759;BME280;64371;47.566;19.086;2023-06-10T07:18:57;100109.81;;;21.38;74.85
75759;BME280;64371;47.566;19.086;2023-06-10T07:22:00;100107.09;;;21.57;72.93
75759;BME280;64371;47.566;19.086;2023-06-10T07:25:02;100112.00;;;21.78;72.57
75759;BME280;64371;47.566;19.086;2023-06-10T07:28:05;100110.16;;;21.37;73.38
75759;BME280;64371;47.566;19.086;2023-06-10T07:31:08;100104.97;;;21.25;74.07
75759;BME280;64371;47.566;19.086;2023-06-10T07:34:12;100114.84;;;20.82;76.04
75759;BME280;64371;47.566;19.086;2023-06-10T07:37:14;100110.03;;;20.53;77.17
75759;BME280;64371;47.566;19.086;2023-06-10T07:40:17;100118.25;;;20.44;77.90
75759;BME280;64371;47.566;19.086;2023-06-10T07:43:24;100115.38;;;20.53;77.64
75759;BME280;64371;47.566;19.086;2023-06-10T07:46:26;100115.69;;;20.01;79.68
75759;BME280;64371;47.566;19.086;2023-06-10T07:49:29;100117.06;;;20.11;80.27
75759;BME280;64371;47.566;19.086;2023-06-10T07:52:32;100121.84;;;20.17;79.52
75759;BME280;64371;47.566;19.086;2023-06-10T07:55:35;100123.97;;;20.43;78.39
75759;BME280;64371;47.566;19.086;2023-06-10T07:58:37;100117.66;;;20.70;77.16
75759;BME280;64371;47.566;19.086;2023-06-10T08:01:39;100094.88;;;21.18;74.72
75759;BME280;64371;47.566;19.086;2023-06-10T08:04:42;100122.06;;;22.04;72.29
75759;BME280;64371;47.566;19.086;2023-06-10T08:07:45;100114.09;;;22.11;70.49
75759;BME280;64371;47.566;19.086;2023-06-10T08:10:47;100108.00;;;22.99;66.84
75759;BME280;64371;47.566;19.086;2023-06-10T08:13:52;100106.88;;;24.35;62.09
75759;BME280;64371;47.566;19.086;2023-06-10T08:16:54;100107.09;;;23.62;62.83
75759;BME280;64371;47.566;19.086;2023-06-10T08:19:56;100107.69;;;25.61;57.44
75759;BME280;64371;47.566;19.086;2023-06-10T08:22:59;100104.22;;;25.99;56.54
75759;BME280;64371;47.566;19.086;2023-06-10T08:26:03;100100.56;;;24.79;59.75
75759;BME280;64371;47.566;19.086;2023-06-10T08:29:05;100104.75;;;24.66;60.12
75759;BME280;64371;47.566;19.086;2023-06-10T08:32:08;100100.41;;;24.44;60.81
75759;BME280;64371;47.566;19.086;2023-06-10T08:35:10;100085.63;;;25.10;58.18
75759;BME280;64371;47.566;19.086;2023-06-10T08:38:13;100093.44;;;25.96;54.84
75759;BME280;64371;47.566;19.086;2023-06-10T08:41:17;100088.00;;;25.43;56.21
75759;BME280;64371;47.566;19.086;2023-06-10T08:44:28;100085.72;;;25.55;55.97
75759;BME280;64371;47.566;19.086;2023-06-10T08:47:34;100092.59;;;25.25;56.46
75759;BME280;64371;47.566;19.086;2023-06-10T08:50:41;100085.66;;;25.27;56.90
75759;BME280;64371;47.566;19.086;2023-06-10T08:53:52;100080.94;;;24.85;58.41
75759;BME280;64371;47.566;19.086;2023-06-10T08:56:57;100080.22;;;25.02;57.77
75759;BME280;64371;47.566;19.086;2023-06-10T09:00:01;100071.03;;;25.95;55.45
75759;BME280;64371;47.566;19.086;2023-06-10T09:03:05;100069.50;;;25.87;54.06
75759;BME280;64371;47.566;19.086;2023-06-10T09:06:11;100074.81;;;26.37;52.52
75759;BME280;64371;47.566;19.086;2023-06-10T09:09:14;100073.22;;;26.57;52.62
75759;BME280;64371;47.566;19.086;2023-06-10T09:12:16;100063.38;;;26.98;51.94
75759;BME280;64371;47.566;19.086;2023-06-10T09:15:19;100065.34;;;27.93;48.46
75759;BME280;64371;47.566;19.086;2023-06-10T09:18:22;100060.34;;;27.92;49.80
75759;BME280;64371;47.566;19.086;2023-06-10T09:21:25;100053.69;;;27.96;48.97
75759;BME280;64371;47.566;19.086;2023-06-10T09:24:27;100059.38;;;27.17;50.58
75759;BME280;64371;47.566;19.086;2023-06-10T09:27:32;100055.19;;;25.20;55.40
75759;BME280;64371;47.566;19.086;2023-06-10T09:30:35;100045.19;;;23.62;60.95
75759;BME280;64371;47.566;19.086;2023-06-10T09:33:38;100050.91;;;22.76;65.11
75759;BME280;64371;47.566;19.086;2023-06-10T09:36:43;100056.69;;;22.78;65.56
75759;BME280;64371;47.566;19.086;2023-06-10T09:40:08;100062.09;;;22.52;66.74
75759;BME280;64371;47.566;19.086;2023-06-10T09:43:12;100057.66;;;22.63;66.59
75759;BME280;64371;47.566;19.086;2023-06-10T09:46:19;100067.06;;;22.50;66.41
75759;BME280;64371;47.566;19.086;2023-06-10T09:49:21;100065.84;;;22.74;65.54
75759;BME280;64371;47.566;19.086;2023-06-10T09:52:26;100064.56;;;22.97;64.32
75759;BME280;64371;47.566;19.086;2023-06-10T09:55:33;100053.66;;;23.20;62.94
75759;BME280;64371;47.566;19.086;2023-06-10T09:58:39;100058.66;;;23.22;63.48
75759;BME280;64371;47.566;19.086;2023-06-10T10:01:41;100063.47;;;23.42;62.19
75759;BME280;64371;47.566;19.086;2023-06-10T10:04:44;100061.63;;;23.09;64.34
75759;BME280;64371;47.566;19.086;2023-06-10T10:07:47;100043.13;;;23.41;62.40
75759;BME280;64371;47.566;19.086;2023-06-10T10:10:49;100050.19;;;23.60;61.04
75759;BME280;64371;47.566;19.086;2023-06-10T10:13:52;100043.78;;;23.78;60.42
75759;BME280;64371;47.566;19.086;2023-06-10T10:16:55;100039.03;;;24.12;59.13
75759;BME280;64371;47.566;19.086;2023-06-10T10:20:02;100037.34;;;23.90;59.44
75759;BME280;64371;47.566;19.086;2023-06-10T10:23:08;100041.31;;;24.10;58.73
75759;BME280;64371;47.566;19.086;2023-06-10T10:26:11;100037.22;;;24.34;58.11
75759;BME280;64371;47.566;19.086;2023-06-10T10:29:24;100033.25;;;25.39;54.29
75759;BME280;64371;47.566;19.086;2023-06-10T10:32:38;100039.00;;;25.09;55.08
75759;BME280;64371;47.566;19.086;2023-06-10T10:35:43;100027.03;;;26.02;52.88
75759;BME280;64371;47.566;19.086;2023-06-10T10:38:47;100022.06;;;25.44;53.76
75759;BME280;64371;47.566;19.086;2023-06-10T10:41:56;100026.31;;;25.77;52.59
75759;BME280;64371;47.566;19.086;2023-06-10T10:44:59;100020.44;;;26.17;52.60
75759;BME280;64371;47.566;19.086;2023-06-10T10:48:11;100020.16;;;25.58;53.95
75759;BME280;64371;47.566;19.086;2023-06-10T10:51:15;100009.34;;;25.23;55.40
75759;BME280;64371;47.566;19.086;2023-06-10T10:54:18;100006.66;;;25.02;56.51
75759;BME280;64371;47.566;19.086;2023-06-10T10:57:22;100009.91;;;24.42;58.03
75759;BME280;64371;47.566;19.086;2023-06-10T11:00:43;100004.44;;;24.21;58.78
75759;BME280;64371;47.566;19.086;2023-06-10T11:03:46;100013.03;;;23.80;60.38
75759;BME280;64371;47.566;19.086;2023-06-10T11:06:53;100001.84;;;23.27;61.79
75759;BME280;64371;47.566;19.086;2023-06-10T11:13:13;99990.34;;;23.84;60.53
75759;BME280;64371;47.566;19.086;2023-06-10T11:16:19;99981.72;;;23.57;60.49
75759;BME280;64371;47.566;19.086;2023-06-10T11:19:32;99992.72;;;23.96;59.97
75759;BME280;64371;47.566;19.086;2023-06-10T11:22:58;99983.97;;;23.48;60.59
75759;BME280;64371;47.566;19.086;2023-06-10T11:29:15;99983.75;;;23.74;60.62
75759;BME280;64371;47.566;19.086;2023-06-10T11:32:17;99990.63;;;23.61;60.59
75759;BME280;64371;47.566;19.086;2023-06-10T11:35:23;99986.72;;;23.55;61.19
75759;BME280;64371;47.566;19.086;2023-06-10T11:38:26;99990.38;;;23.33;61.31
75759;BME280;64371;47.566;19.086;2023-06-10T11:41:29;99984.31;;;23.43;60.67
75759;BME280;64371;47.566;19.086;2023-06-10T11:44:32;99984.91;;;23.70;60.35
75759;BME280;64371;47.566;19.086;2023-06-10T11:47:39;99970.09;;;24.04;58.00
75759;BME280;64371;47.566;19.086;2023-06-10T11:50:42;99985.34;;;24.65;57.05
75759;BME280;64371;47.566;19.086;2023-06-10T11:53:45;99965.41;;;24.94;52.88
75759;BME280;64371;47.566;19.086;2023-06-10T11:56:48;99965.69;;;24.58;55.00
75759;BME280;64371;47.566;19.086;2023-06-10T11:59:50;99973.47;;;24.98;54.23
75759;BME280;64371;47.566;19.086;2023-06-10T12:02:57;99968.88;;;25.20;52.13
75759;BME280;64371;47.566;19.086;2023-06-10T12:06:06;99961.94;;;25.26;53.23
75759;BME280;64371;47.566;19.086;2023-06-10T12:12:29;99952.25;;;24.72;53.12
75759;BME280;64371;47.566;19.086;2023-06-10T12:15:31;99950.69;;;24.67;53.56
75759;BME280;64371;47.566;19.086;2023-06-10T12:18:34;99943.03;;;24.97;53.63
75759;BME280;64371;47.566;19.086;2023-06-10T12:21:37;99936.84;;;25.53;52.62
75759;BME280;64371;47.566;19.086;2023-06-10T12:24:58;99942.88;;;26.17;51.34
75759;BME280;64371;47.566;19.086;2023-06-10T12:28:05;99937.56;;;25.75;55.36
75759;BME280;64371;47.566;19.086;2023-06-10T12:31:08;99937.22;;;25.41;56.66
75759;BME280;64371;47.566;19.086;2023-06-10T12:34:10;99929.13;;;25.41;56.90
75759;BME280;64371;47.566;19.086;2023-06-10T12:37:13;99924.16;;;25.29;55.56
75759;BME280;64371;47.566;19.086;2023-06-10T12:40:15;99930.72;;;25.11;56.04
75759;BME280;64371;47.566;19.086;2023-06-10T12:43:21;99920.69;;;25.22;55.97
75759;BME280;64371;47.566;19.086;2023-06-10T12:46:24;99918.78;;;25.12;56.07
75759;BME280;64371;47.566;19.086;2023-06-10T12:49:27;99911.44;;;25.19;56.95
75759;BME280;64371;47.566;19.086;2023-06-10T12:52:30;99920.69;;;25.18;57.46
75759;BME280;64371;47.566;19.086;2023-06-10T12:55:33;99929.16;;;25.31;55.86
75759;BME280;64371;47.566;19.086;2023-06-10T12:58:37;99922.19;;;25.61;53.68
75759;BME280;64371;47.566;19.086;2023-06-10T13:01:39;99916.66;;;26.04;55.48
75759;BME280;64371;47.566;19.086;2023-06-10T13:04:43;99912.50;;;25.82;53.33
75759;BME280;64371;47.566;19.086;2023-06-10T13:07:46;99921.28;;;26.00;52.59
75759;BME280;64371;47.566;19.086;2023-06-10T13:10:49;99915.50;;;25.98;52.18
75759;BME280;64371;47.566;19.086;2023-06-10T13:13:51;99919.13;;;25.52;53.83
75759;BME280;64371;47.566;19.086;2023-06-10T13:16:54;99914.13;;;25.33;54.70
75759;BME280;64371;47.566;19.086;2023-06-10T13:19:57;99913.00;;;24.99;56.24
75759;BME280;64371;47.566;19.086;2023-06-10T13:22:59;99916.44;;;25.28;55.70
75759;BME280;64371;47.566;19.086;2023-06-10T13:26:01;99905.22;;;24.48;56.55
75759;BME280;64371;47.566;19.086;2023-06-10T13:29:05;99915.69;;;24.81;56.14
75759;BME280;64371;47.566;19.086;2023-06-10T13:32:08;99907.97;;;25.08;54.47
75759;BME280;64371;47.566;19.086;2023-06-10T13:35:10;99909.88;;;25.43;54.90
75759;BME280;64371;47.566;19.086;2023-06-10T13:38:13;99903.28;;;25.58;56.75
75759;BME280;64371;47.566;19.086;2023-06-10T13:41:15;99909.88;;;23.65;72.47
75759;BME280;64371;47.566;19.086;2023-06-10T13:44:18;99924.59;;;22.43;78.52
75759;BME280;64371;47.566;19.086;2023-06-10T13:47:20;99924.16;;;21.78;80.26
75759;BME280;64371;47.566;19.086;2023-06-10T13:50:23;99924.25;;;21.55;80.19
75759;BME280;64371;47.566;19.086;2023-06-10T13:53:25;99911.06;;;21.43;77.03
75759;BME280;64371;47.566;19.086;2023-06-10T13:56:28;99925.47;;;21.61;75.88
75759;BME280;64371;47.566;19.086;2023-06-10T13:59:30;99919.13;;;21.73;75.55
75759;BME280;64371;47.566;19.086;2023-06-10T14:02:32;99915.81;;;21.83;74.00
75759;BME280;64371;47.566;19.086;2023-06-10T14:05:35;99919.28;;;21.83;76.28
75759;BME280;64371;47.566;19.086;2023-06-10T14:08:37;99919.44;;;21.94;75.79
75759;BME280;64371;47.566;19.086;2023-06-10T14:11:40;99909.13;;;21.96;72.84
75759;BME280;64371;47.566;19.086;2023-06-10T14:14:42;99912.97;;;21.99;72.78
75759;BME280;64371;47.566;19.086;2023-06-10T14:17:44;99914.28;;;22.12;71.76
75759;BME280;64371;47.566;19.086;2023-06-10T14:20:47;99909.50;;;21.98;71.91
75759;BME280;64371;47.566;19.086;2023-06-10T14:23:49;99904.84;;;22.25;70.80
75759;BME280;64371;47.566;19.086;2023-06-10T14:26:53;99908.84;;;22.41;71.56
75759;BME280;64371;47.566;19.086;2023-06-10T14:29:56;99909.91;;;22.33;73.08
75759;BME280;64371;47.566;19.086;2023-06-10T14:32:58;99912.84;;;22.55;72.10
75759;BME280;64371;47.566;19.086;2023-06-10T14:36:01;99899.25;;;22.77;71.49
75759;BME280;64371;47.566;19.086;2023-06-10T14:39:04;99897.44;;;22.88;71.62
75759;BME280;64371;47.566;19.086;2023-06-10T14:42:07;99889.13;;;23.07;71.55
75759;BME280;64371;47.566;19.086;2023-06-10T14:45:09;99902.31;;;22.76;73.76
75759;BME280;64371;47.566;19.086;2023-06-10T14:48:12;99898.19;;;22.48;74.10
75759;BME280;64371;47.566;19.086;2023-06-10T14:51:15;99899.81;;;22.60;nan
75759;BME280;64371;47.566;19.086;2023-06-10T14:54:17;99892.94;;;23.03;70.84
75759;BME280;64371;47.566;19.086;2023-06-10T14:57:19;99897.19;;;23.62;67.99
75759;BME280;64371;47.566;19.086;2023-06-10T15:00:22;99897.06;;;23.37;68.76
75759;BME280;64371;47.566;19.086;2023-06-10T15:03:26;99912.84;;;23.46;69.41
75759;BME280;64371;47.566;19.086;2023-06-10T15:06:28;99908.88;;;23.33;70.58
75759;BME280;64371;47.566;19.086;2023-06-10T15:09:31;99921.06;;;23.13;75.80
75759;BME280;64371;47.566;19.086;2023-06-10T15:12:34;99930.22;;;22.31;78.39
75759;BME280;64371;47.566;19.086;2023-06-10T15:15:36;99913.44;;;21.78;79.61
75759;BME280;64371;47.566;19.086;2023-06-10T15:18:39;99918.19;;;21.85;81.52
75759;BME280;64371;47.566;19.086;2023-06-10T15:21:41;99925.53;;;21.91;80.74
75759;BME280;64371;47.566;19.086;2023-06-10T15:24:44;99937.81;;;21.92;80.30
75759;BME280;64371;47.566;19.086;2023-06-10T15:27:46;99932.41;;;21.89;80.04
75759;BME280;64371;47.566;19.086;2023-06-10T15:30:48;99923.50;;;21.58;77.53
75759;BME280;64371;47.566;19.086;2023-06-10T15:33:51;99925.06;;;21.59;78.82
75759;BME280;64371;47.566;19.086;2023-06-10T15:36:53;99923.41;;;21.51;77.61
75759;BME280;64371;47.566;19.086;2023-06-10T15:39:55;99910.53;;;21.34;77.50
75759;BME280;64371;47.566;19.086;2023-06-10T15:42:58;99919.44;;;21.42;79.21
75759;BME280;64371;47.566;19.086;2023-06-10T15:46:01;99916.66;;;21.61;74.11
75759;BME280;64371;47.566;19.086;2023-06-10T15:49:04;99908.06;;;21.48;74.92
75759;BME280;64371;47.566;19.086;2023-06-10T15:52:06;99929.34;;;21.64;73.23
75759;BME280;64371;47.566;19.086;2023-06-10T15:55:09;99928.41;;;21.79;73.45
75759;BME280;64371;47.566;19.086;2023-06-10T15:58:12;99930.75;;;22.10;72.04